x

West Washington - 300nm West Of Aberdeen, Wa (46005) Wave Buoy

9:50pm - Wed 24th Aug 2016 All times are UTC.

  • Sig Wave height 6.6ft
  • Swell Direction
  • Peak Period 7s
  • Average Period 6s
  • Wind
    20mph, 25mph gusts
  • Sea Temp 63°f
  • Air Temp 63°f
  • Sea Pressure 1027.8mb

More Historic Weather Station data

Upgrade to MSW Pro to gain access to the past 30 days of data for over 8000 Wavebouys and Weather Stations around the globe.

Join Pro

Comparision Forecast

View Surf forecast
   
Wed 08/24 9:50pm 6.5ft 7s 6s 20 25 mph 1027.8mb 63f 63f
8:50pm 6ft 8s 5s 20 25 mph 1028.2mb 63f 63f
7:50pm 6ft 7s 5s 20 27 mph 1028.6mb 63f 63f
6:50pm 6ft 7s 5s 20 27 mph 1028.6mb 63f 63f
5:50pm 6ft 6s 5s 20 25 mph 1028.7mb 63f 63f
4:50pm 6.5ft 6s 5s 20 27 mph 1028.5mb 63f 62f
3:50pm 5.5ft 6s 5s 22 27 mph 1028.3mb 63f 62f
2:50pm 5.5ft 6s 5s 20 27 mph 1028.2mb 63f 62f
1:50pm 5ft 6s 5s 22 27 mph 1027.9mb 63f 62f
12:50pm 5ft 6s 5s 20 25 mph 1027.5mb 63f 62f
11:50am 5ft 5s 5s 20 27 mph 1027.6mb 63f 62f
10:50am 4.5ft 14s 5s 22 27 mph 1027.4mb 63f 62f
9:50am 4.5ft 6s 5s 18 22 mph 1027.4mb 63f 62f
8:50am 4.5ft 14s 5s 20 25 mph 1027.5mb 63f 62f
7:50am 4.5ft 15s 5s 18 20 mph 1027.6mb 63f 63f
6:50am 4.5ft 15s 5s 13 18 mph 1027.9mb 63f 63f
5:50am 4.5ft 15s 5s 16 20 mph 1027.8mb 63f 64f
4:50am 4.5ft 15s 5s 18 20 mph 1027.8mb 63f 64f
3:50am 4.5ft 15s 5s 16 18 mph 1027.5mb 63f 63f
2:50am 4.5ft 15s 5s 16 18 mph 1027.2mb 63f 64f
1:50am 4ft 15s 5s 16 20 mph 1027mb 63f 64f
12:50am 4ft 15s 5s 16 18 mph 1026.8mb 63f 64f
Tue 08/23 11:50pm 4.5ft 15s 5s 13 16 mph 1027mb 63f 63f
10:50pm 4.5ft 15s 5s 16 18 mph 1027.1mb 63f 63f
9:50pm 4.5ft 15s 5s 13 18 mph 1027.1mb 63f 63f
8:50pm 4ft 15s 5s 16 18 mph 1027mb 63f 63f
7:50pm 4ft 16s 5s 16 18 mph 1027.1mb 63f 63f
6:50pm 4.5ft 15s 6s 13 16 mph 1027.1mb 63f 63f
5:50pm 4.5ft 15s 6s 13 16 mph 1026.8mb 63f 62f
4:50pm 4.5ft 15s 6s 13 16 mph 1026.5mb 63f 62f
3:50pm 4.5ft 15s 6s 13 16 mph 1026mb 63f 62f
2:50pm 4.5ft 16s 6s 13 16 mph 1025.4mb 63f 62f
1:50pm 4.5ft 7s 5s 13 16 mph 1024.8mb 63f 62f
12:50pm 4.5ft 16s 6s 16 20 mph 1024.3mb 63f 62f
11:50am 4.5ft 8s 6s 16 18 mph 1024.2mb 63f 62f
10:50am 4.5ft 15s 6s 16 18 mph 1024.3mb 63f 62f
9:50am 4ft 14s 6s 16 18 mph 1024.2mb 63f 62f
8:50am 4.5ft 14s 6s 13 16 mph 1024mb 63f 62f
7:50am 4ft 16s 6s 13 16 mph 1024.1mb 63f 62f
6:50am 4ft 16s 6s 13 16 mph 1024.1mb 63f 62f
5:50am 4ft 16s 6s 13 16 mph 1024mb 63f 62f
4:50am 4.5ft 14s 6s 13 16 mph 1023.8mb 63f 62f
3:50am 4.5ft 16s 6s 13 16 mph 1023.2mb 63f 62f
2:50am 4.5ft 16s 6s 13 18 mph 1022.7mb 63f 63f
1:50am 4.5ft 15s 6s 13 16 mph 1022.7mb 63f 63f
12:50am 4.5ft 16s 6s 11 13 mph 1022.9mb 63f 63f
Mon 08/22 11:50pm 4.5ft 16s 6s 13
mph
1023mb 63f 63f
10:50pm 4ft 16s 6s 11 13 mph 1022.9mb 63f 63f
9:50pm 4.5ft 16s 6s 11 13 mph 1022.8mb 63f 63f
8:50pm 4.5ft 15s 6s 11
mph
1022.6mb 63f 62f
7:50pm 3.5ft 17s 6s 11 13 mph 1022.6mb 63f 62f
6:50pm 4ft 15s 7s 9 11 mph 1022.6mb 63f 62f
5:50pm 4.5ft 15s 7s 7 9 mph 1022.4mb 63f 62f
4:50pm 4.5ft 15s 7s 11 13 mph 1022mb 63f 62f
3:50pm 4.5ft 15s 7s 11
mph
1021.6mb 63f 62f
2:50pm 4.5ft 15s 7s 11 13 mph 1021.3mb 63f 62f
1:50pm 4.5ft 15s 7s 11 13 mph 1021.1mb 63f 62f
12:50pm 4.5ft 15s 7s 11
mph
1020.8mb 63f 62f
11:50am 4.5ft 15s 6s 9 13 mph 1020.6mb 63f 62f
10:50am 4.5ft 15s 6s 9 11 mph 1020.6mb 63f 62f
9:50am 4.5ft 15s 6s 9 11 mph 1020.4mb 63f 62f
8:50am 4.5ft 15s 6s 9 11 mph 1020.4mb 63f 62f
7:50am 4.5ft 15s 6s 9 11 mph 1020.3mb 63f 62f
6:50am 4.5ft 15s 6s 9 11 mph 1020.4mb 63f 62f
5:50am 4.5ft 15s 6s 11 13 mph 1020.4mb 63f 62f
4:50am 4.5ft 15s 6s 11 13 mph 1020.1mb 63f 62f
2:50am 5ft 15s 6s 11 13 mph 1019.1mb 63f 63f
1:50am 5ft 7s 6s 13 16 mph 1019mb 63f 63f
12:50am 5ft 6s 6s 13 16 mph 1018.9mb 63f 63f
Sun 08/21 11:50pm 5ft 16s 6s 13 16 mph 1018.7mb 63f 63f
10:50pm 5ft 15s 6s 13 16 mph 1018.8mb 63f 63f
9:50pm 5ft 7s 6s 16 18 mph 1018.8mb 63f 63f
8:50pm 5ft 7s 6s 13 16 mph 1018.8mb 63f 63f
7:50pm 5.5ft 7s 6s 13 16 mph 1019mb 63f 63f
6:50pm 5.5ft 6s 6s 16 18 mph 1018.8mb 62f 62f
5:50pm 6ft 7s 6s 16 18 mph 1018.6mb 62f 62f
4:50pm 6ft 7s 6s 16 18 mph 1018.2mb 62f 62f
3:50pm 6ft 6s 6s 18 20 mph 1017.7mb 62f 62f
2:50pm 5.5ft 7s 5s 18 22 mph 1017.5mb 62f 62f
1:50pm 6ft 6s 6s 18 25 mph 1017.2mb 62f 62f
12:50pm 6ft 7s 5s 20 25 mph 1016.9mb 62f 62f
11:50am 6ft 7s 6s 18 22 mph 1016.7mb 62f 62f
10:50am 6ft 6s 6s 20 22 mph 1016.9mb 62f 62f
9:50am 6ft 8s 6s 18 20 mph 1017mb 62f 62f
8:50am 6ft 7s 6s 20 25 mph 1017.4mb 62f 62f
7:50am 6ft 8s 6s 18 22 mph 1017.4mb 62f 61f
6:50am 7ft 8s 6s 18 22 mph 1017.7mb 62f 62f
5:50am 7ft 7s 6s 20 25 mph 1017.7mb 63f 62f
4:50am 7ft 7s 6s 20 25 mph 1017.8mb 63f 63f
3:50am 6.5ft 8s 6s 20 25 mph 1017.7mb 63f 63f
2:50am 6.5ft 7s 6s 20 22 mph 1017.7mb 63f 62f
1:50am 6.5ft 8s 6s 18 22 mph 1018mb 63f 62f
12:50am 7ft 8s 6s 20 25 mph 1018mb 63f 62f
Sat 08/20 11:50pm 7ft 8s 6s 20 25 mph 1018.5mb 63f 62f
10:50pm 7.5ft 8s 6s 20 25 mph 1018.9mb 63f 63f